createdAt,value
2024-05-09T00:00:18.168Z,14.82
2024-05-09T00:00:53.953Z,14.87
2024-05-09T00:01:25.743Z,14.84
2024-05-09T00:01:57.552Z,14.85
2024-05-09T00:02:29.653Z,14.84
2024-05-09T00:03:01.500Z,14.78
2024-05-09T00:03:33.302Z,14.77
2024-05-09T00:04:05.274Z,14.81
2024-05-09T00:04:37.089Z,14.85
2024-05-09T00:05:11.030Z,14.85
2024-05-09T00:05:44.063Z,14.87
2024-05-09T00:06:16.279Z,14.92
2024-05-09T00:06:48.031Z,14.89
2024-05-09T00:07:20.513Z,14.85
2024-05-09T00:07:52.252Z,14.88
2024-05-09T00:08:24.241Z,14.89
2024-05-09T00:08:56.032Z,14.91
2024-05-09T00:09:27.724Z,14.92
2024-05-09T00:09:59.500Z,14.95
2024-05-09T00:10:36.425Z,14.94
2024-05-09T00:11:10.411Z,14.94
2024-05-09T00:11:42.387Z,14.92
2024-05-09T00:12:14.285Z,14.95
2024-05-09T00:12:46.036Z,14.96
2024-05-09T00:13:17.746Z,14.99
2024-05-09T00:13:49.530Z,14.96
2024-05-09T00:14:21.304Z,14.96
2024-05-09T00:14:53.031Z,15.02
2024-05-09T00:15:24.813Z,15.01
2024-05-09T00:15:56.606Z,15.02
2024-05-09T00:16:28.299Z,15.02
2024-05-09T00:17:00.047Z,15.01
2024-05-09T00:17:32.021Z,15.02
2024-05-09T00:18:05.227Z,15.03
2024-05-09T00:18:37.741Z,15.06
2024-05-09T00:19:09.766Z,15.06
2024-05-09T00:19:43.609Z,15.05
2024-05-09T00:20:20.511Z,15.05
2024-05-09T00:20:56.440Z,14.96
2024-05-09T00:21:28.216Z,14.95
2024-05-09T00:21:59.936Z,14.98
2024-05-09T00:22:32.147Z,14.99
2024-05-09T00:23:04.431Z,14.95
2024-05-09T00:23:36.266Z,14.99
2024-05-09T00:24:07.985Z,14.96
2024-05-09T00:24:39.677Z,14.95
2024-05-09T00:25:11.420Z,14.95
2024-05-09T00:25:43.910Z,14.92
2024-05-09T00:26:19.538Z,14.95
2024-05-09T00:26:51.270Z,14.96
2024-05-09T00:27:23.019Z,14.88
2024-05-09T00:27:54.751Z,14.91
2024-05-09T00:28:26.629Z,14.89
2024-05-09T00:28:58.401Z,14.89
2024-05-09T00:29:30.161Z,14.85
2024-05-09T00:30:03.923Z,14.94
2024-05-09T00:30:37.159Z,14.91
2024-05-09T00:31:09.352Z,14.92
2024-05-09T00:31:41.062Z,14.92
2024-05-09T00:32:12.947Z,14.96
2024-05-09T00:32:44.835Z,14.98
2024-05-09T00:33:16.968Z,14.98
2024-05-09T00:33:48.801Z,14.95
2024-05-09T00:34:20.715Z,14.99
2024-05-09T00:34:52.510Z,14.96
2024-05-09T00:35:24.394Z,14.94
2024-05-09T00:35:56.735Z,14.99
2024-05-09T00:36:28.426Z,14.98
2024-05-09T00:37:00.117Z,14.99
2024-05-09T00:37:31.831Z,14.94
2024-05-09T00:38:04.203Z,14.91
2024-05-09T00:38:36.335Z,14.96
2024-05-09T00:39:08.206Z,14.99
2024-05-09T00:39:39.884Z,14.99
2024-05-09T00:40:18.341Z,15.02
2024-05-09T00:40:54.588Z,15.05
2024-05-09T00:41:26.370Z,15.06
2024-05-09T00:41:59.614Z,14.99
2024-05-09T00:42:31.314Z,14.92
2024-05-09T00:43:03.196Z,14.85
2024-05-09T00:43:34.885Z,14.91
2024-05-09T00:44:06.736Z,14.88
2024-05-09T00:44:38.523Z,14.91
2024-05-09T00:45:10.316Z,14.94
2024-05-09T00:45:42.861Z,14.95
2024-05-09T00:46:14.760Z,14.94
2024-05-09T00:46:46.536Z,14.94
2024-05-09T00:47:18.688Z,14.84
2024-05-09T00:47:50.783Z,14.73
2024-05-09T00:48:23.144Z,14.67
2024-05-09T00:48:55.717Z,14.74
2024-05-09T00:49:28.424Z,14.67
2024-05-09T00:50:01.673Z,14.70
2024-05-09T00:50:37.118Z,14.75
2024-05-09T00:51:09.787Z,14.75
2024-05-09T00:51:42.460Z,14.80
2024-05-09T00:52:14.232Z,14.84
2024-05-09T00:52:47.310Z,14.85
2024-05-09T00:53:19.293Z,14.84
2024-05-09T00:53:51.096Z,14.88
2024-05-09T00:54:23.330Z,14.92
2024-05-09T00:54:56.830Z,14.91
2024-05-09T00:55:28.742Z,14.91
2024-05-09T00:56:01.328Z,14.89
2024-05-09T00:56:35.553Z,14.91
2024-05-09T00:57:07.346Z,14.89
2024-05-09T00:57:39.933Z,14.91
2024-05-09T00:58:15.173Z,14.87
2024-05-09T00:58:48.605Z,14.91
2024-05-09T00:59:21.336Z,14.94
2024-05-09T00:59:54.214Z,14.91
2024-05-09T01:00:34.616Z,14.87
2024-05-09T01:01:10.875Z,14.89
2024-05-09T01:01:44.355Z,14.81
2024-05-09T01:02:16.326Z,14.84
2024-05-09T01:02:48.236Z,14.81
2024-05-09T01:03:20.436Z,14.80
2024-05-09T01:03:52.789Z,14.81
2024-05-09T01:04:24.616Z,14.82
2024-05-09T01:04:56.701Z,14.82
2024-05-09T01:05:28.473Z,14.78
2024-05-09T01:06:00.201Z,14.80
2024-05-09T01:06:31.960Z,14.80
2024-05-09T01:07:03.899Z,14.82
2024-05-09T01:07:35.612Z,14.81
2024-05-09T01:08:08.423Z,14.81
2024-05-09T01:08:40.684Z,14.84
2024-05-09T01:09:12.518Z,14.82
2024-05-09T01:09:44.206Z,14.75
2024-05-09T01:10:21.222Z,14.73
2024-05-09T01:10:59.497Z,14.70
2024-05-09T01:11:39.050Z,14.73
2024-05-09T01:12:10.930Z,14.71
2024-05-09T01:12:42.782Z,14.68
2024-05-09T01:13:14.536Z,14.70
2024-05-09T01:13:46.333Z,14.73
2024-05-09T01:14:18.378Z,14.75
2024-05-09T01:14:50.323Z,14.77
2024-05-09T01:15:22.084Z,14.77
2024-05-09T01:15:54.160Z,14.74
2024-05-09T01:16:25.876Z,14.78
2024-05-09T01:16:57.896Z,14.63
2024-05-09T01:17:29.872Z,14.68
2024-05-09T01:18:06.287Z,14.67
2024-05-09T01:18:38.262Z,14.67
2024-05-09T01:19:19.371Z,14.65
2024-05-09T01:19:51.222Z,14.70
2024-05-09T01:20:31.993Z,14.70
2024-05-09T01:21:11.931Z,14.71
2024-05-09T01:21:44.042Z,14.70
2024-05-09T01:22:15.724Z,14.67
2024-05-09T01:22:47.686Z,14.63
2024-05-09T01:23:19.555Z,14.65
2024-05-09T01:23:51.323Z,14.67
2024-05-09T01:24:23.015Z,14.65
2024-05-09T01:24:54.724Z,14.54
2024-05-09T01:25:26.438Z,14.54
2024-05-09T01:25:58.169Z,14.56
2024-05-09T01:26:30.090Z,14.50
2024-05-09T01:27:01.866Z,14.51
2024-05-09T01:27:33.566Z,14.54
2024-05-09T01:28:05.980Z,14.48
2024-05-09T01:28:37.836Z,14.48
2024-05-09T01:29:09.606Z,14.45
2024-05-09T01:29:41.380Z,14.45
2024-05-09T01:30:17.421Z,14.44
2024-05-09T01:30:53.004Z,14.43
2024-05-09T01:31:24.711Z,14.45
2024-05-09T01:31:59.237Z,14.41
2024-05-09T01:32:31.190Z,14.47
2024-05-09T01:33:03.592Z,14.33
2024-05-09T01:33:35.721Z,14.38
2024-05-09T01:34:07.627Z,14.40
2024-05-09T01:34:39.398Z,14.38
2024-05-09T01:35:11.206Z,14.38
2024-05-09T01:35:43.435Z,14.34
2024-05-09T01:36:15.264Z,14.36
2024-05-09T01:36:46.967Z,14.32
2024-05-09T01:37:18.737Z,14.36
2024-05-09T01:37:50.877Z,14.38
2024-05-09T01:38:22.702Z,14.38
2024-05-09T01:38:54.442Z,14.36
2024-05-09T01:39:26.161Z,14.40
2024-05-09T01:39:57.883Z,14.40
2024-05-09T01:40:37.103Z,14.44
2024-05-09T01:41:11.477Z,14.40
2024-05-09T01:41:43.229Z,14.41
2024-05-09T01:42:16.618Z,14.45
2024-05-09T01:42:48.352Z,14.37
2024-05-09T01:43:20.090Z,14.37
2024-05-09T01:43:51.898Z,14.41
2024-05-09T01:44:23.714Z,14.47
2024-05-09T01:44:55.446Z,14.45
2024-05-09T01:45:27.165Z,14.53
2024-05-09T01:45:58.941Z,14.47
2024-05-09T01:46:30.642Z,14.51
2024-05-09T01:47:02.453Z,14.56
2024-05-09T01:47:34.443Z,14.51
2024-05-09T01:48:07.063Z,14.50
2024-05-09T01:48:38.929Z,14.54
2024-05-09T01:49:10.863Z,14.54
2024-05-09T01:49:42.858Z,14.54
2024-05-09T01:50:48.067Z,14.61
2024-05-09T01:51:19.954Z,14.61
2024-05-09T01:51:51.712Z,14.59
2024-05-09T01:52:23.428Z,14.61
2024-05-09T01:52:55.224Z,14.63
2024-05-09T01:53:26.968Z,14.64
2024-05-09T01:53:58.765Z,14.64
2024-05-09T01:54:30.459Z,14.61
2024-05-09T01:55:05.687Z,14.59
2024-05-09T01:55:38.545Z,14.45
2024-05-09T01:56:10.626Z,14.48
2024-05-09T01:56:42.449Z,14.48
2024-05-09T01:57:14.231Z,14.50
2024-05-09T01:57:45.923Z,14.56
2024-05-09T01:58:17.652Z,14.56
2024-05-09T01:58:49.391Z,14.51
2024-05-09T01:59:21.274Z,14.51
2024-05-09T01:59:53.073Z,14.51
2024-05-09T02:00:36.851Z,14.56
2024-05-09T02:01:12.512Z,14.61
2024-05-09T02:01:56.311Z,14.53
2024-05-09T02:02:29.586Z,14.53
2024-05-09T02:03:01.975Z,14.50
2024-05-09T02:03:34.095Z,14.40
2024-05-09T02:04:06.237Z,14.48
2024-05-09T02:04:38.486Z,14.53
2024-05-09T02:05:10.558Z,14.59
2024-05-09T02:05:43.287Z,14.61
2024-05-09T02:06:15.157Z,14.64
2024-05-09T02:06:46.918Z,14.67
2024-05-09T02:07:18.687Z,14.71
2024-05-09T02:07:50.467Z,14.73
2024-05-09T02:08:22.558Z,14.73
2024-05-09T02:08:54.371Z,14.68
2024-05-09T02:09:26.151Z,14.65
2024-05-09T02:09:57.858Z,14.68
2024-05-09T02:10:32.714Z,14.65
2024-05-09T02:11:05.313Z,14.63
2024-05-09T02:11:44.498Z,14.68
2024-05-09T02:12:16.467Z,14.70
2024-05-09T02:12:48.354Z,14.68
2024-05-09T02:13:20.214Z,14.65
2024-05-09T02:13:52.058Z,14.68
2024-05-09T02:14:23.917Z,14.68
2024-05-09T02:14:55.679Z,14.70
2024-05-09T02:15:27.372Z,14.71
2024-05-09T02:15:59.076Z,14.73
2024-05-09T02:16:30.762Z,14.71
2024-05-09T02:17:02.515Z,14.73
2024-05-09T02:17:34.350Z,14.67
2024-05-09T02:18:07.221Z,14.73
2024-05-09T02:18:39.330Z,14.65
2024-05-09T02:19:11.275Z,14.68
2024-05-09T02:19:43.242Z,14.70
2024-05-09T02:20:22.576Z,14.67
2024-05-09T02:20:59.276Z,14.68
2024-05-09T02:21:34.424Z,14.70
2024-05-09T02:22:06.149Z,14.65
2024-05-09T02:22:37.846Z,14.67
2024-05-09T02:23:09.871Z,14.65
2024-05-09T02:23:41.870Z,14.65
2024-05-09T02:24:13.620Z,14.65
2024-05-09T02:24:45.318Z,14.70
2024-05-09T02:25:17.083Z,14.71
2024-05-09T02:25:48.825Z,14.71
2024-05-09T02:26:20.631Z,14.70
2024-05-09T02:26:52.333Z,14.70
2024-05-09T02:27:24.047Z,14.68
2024-05-09T02:27:55.825Z,14.71
2024-05-09T02:28:27.562Z,14.70
2024-05-09T02:28:59.763Z,14.64
2024-05-09T02:29:31.548Z,14.68
2024-05-09T02:30:04.709Z,14.63
2024-05-09T02:30:40.970Z,14.68
2024-05-09T02:31:13.973Z,14.67
2024-05-09T02:31:45.744Z,14.63
2024-05-09T02:32:17.587Z,14.68
2024-05-09T02:32:49.441Z,14.73
2024-05-09T02:33:21.766Z,14.71
2024-05-09T02:33:53.950Z,14.67
2024-05-09T02:34:25.992Z,14.65
2024-05-09T02:34:59.803Z,14.64
2024-05-09T02:35:31.638Z,14.70
2024-05-09T02:36:03.747Z,14.64
2024-05-09T02:36:35.456Z,14.67
2024-05-09T02:37:07.176Z,14.70
2024-05-09T02:37:38.868Z,14.68
2024-05-09T02:38:10.856Z,14.67
2024-05-09T02:38:42.762Z,14.65
2024-05-09T02:39:14.551Z,14.70
2024-05-09T02:39:46.237Z,14.70
2024-05-09T02:40:25.250Z,14.68
2024-05-09T02:41:00.835Z,14.67
2024-05-09T02:41:32.688Z,14.68
2024-05-09T02:42:04.505Z,14.68
2024-05-09T02:42:36.208Z,14.68
2024-05-09T02:43:10.617Z,14.70
2024-05-09T02:43:43.194Z,14.71
2024-05-09T02:44:14.995Z,14.73
2024-05-09T02:44:46.750Z,14.74
2024-05-09T02:45:18.450Z,14.73
2024-05-09T02:45:50.164Z,14.75
2024-05-09T02:46:21.921Z,14.70
2024-05-09T02:46:53.633Z,14.73
2024-05-09T02:47:25.617Z,14.64
2024-05-09T02:47:57.901Z,14.70
2024-05-09T02:48:29.954Z,14.60
2024-05-09T02:49:01.756Z,14.53
2024-05-09T02:49:33.624Z,14.60
2024-05-09T02:50:08.039Z,14.68
2024-05-09T02:50:44.428Z,14.70
2024-05-09T02:51:16.469Z,14.63
2024-05-09T02:51:48.225Z,14.61
2024-05-09T02:52:19.913Z,14.60
2024-05-09T02:52:51.665Z,14.63
2024-05-09T02:53:23.424Z,14.63
2024-05-09T02:53:55.221Z,14.63
2024-05-09T02:54:27.082Z,14.60
2024-05-09T02:54:58.824Z,14.63
2024-05-09T02:55:30.516Z,14.60
2024-05-09T02:56:02.290Z,14.59
2024-05-09T02:56:34.069Z,14.59
2024-05-09T02:57:06.075Z,14.57
2024-05-09T02:57:37.888Z,14.60
2024-05-09T02:58:10.582Z,14.53
2024-05-09T02:58:42.437Z,14.48
2024-05-09T02:59:14.635Z,14.47
2024-05-09T02:59:46.390Z,14.50
2024-05-09T03:00:22.918Z,14.50
2024-05-09T03:00:58.630Z,14.41
2024-05-09T03:01:30.388Z,14.43
2024-05-09T03:02:02.240Z,14.44
2024-05-09T03:02:34.104Z,14.41
2024-05-09T03:03:08.550Z,14.44
2024-05-09T03:03:43.635Z,14.44
2024-05-09T03:04:15.528Z,14.43
2024-05-09T03:04:47.369Z,14.43
2024-05-09T03:05:19.272Z,14.40
2024-05-09T03:05:51.255Z,14.41
2024-05-09T03:06:22.981Z,14.43
2024-05-09T03:06:54.695Z,14.40
2024-05-09T03:07:26.376Z,14.41
2024-05-09T03:07:58.118Z,14.34
2024-05-09T03:08:29.860Z,14.36
2024-05-09T03:09:01.841Z,14.33
2024-05-09T03:09:33.540Z,14.29
2024-05-09T03:10:11.887Z,14.29
2024-05-09T03:10:46.677Z,14.24
2024-05-09T03:11:25.220Z,14.30
2024-05-09T03:11:57.188Z,14.27
2024-05-09T03:12:29.080Z,14.27
2024-05-09T03:13:00.797Z,14.29
2024-05-09T03:13:32.490Z,14.33
2024-05-09T03:14:04.210Z,14.27
2024-05-09T03:14:35.918Z,14.23
2024-05-09T03:15:07.921Z,14.23
2024-05-09T03:15:39.662Z,14.16
2024-05-09T03:16:11.344Z,14.16
2024-05-09T03:16:43.078Z,14.09
2024-05-09T03:17:14.856Z,14.12
2024-05-09T03:17:46.753Z,14.12
2024-05-09T03:18:18.685Z,14.12
2024-05-09T03:18:50.562Z,14.09
2024-05-09T03:19:22.471Z,14.08
2024-05-09T03:19:54.392Z,14.06
2024-05-09T03:20:32.582Z,14.09
2024-05-09T03:21:06.836Z,14.08
2024-05-09T03:21:40.146Z,14.10
2024-05-09T03:22:12.614Z,14.08
2024-05-09T03:22:44.354Z,14.08
2024-05-09T03:23:16.186Z,14.02
2024-05-09T03:23:47.973Z,14.10
2024-05-09T03:24:19.693Z,14.05
2024-05-09T03:24:51.416Z,14.03
2024-05-09T03:25:23.132Z,14.01
2024-05-09T03:25:54.958Z,14.02
2024-05-09T03:26:26.949Z,14.01
2024-05-09T03:26:58.684Z,14.02
2024-05-09T03:27:30.393Z,13.92
2024-05-09T03:28:02.119Z,14.01
2024-05-09T03:28:33.893Z,14.03
2024-05-09T03:29:05.616Z,14.06
2024-05-09T03:29:37.497Z,14.03
2024-05-09T03:30:10.118Z,14.09
2024-05-09T03:30:43.233Z,14.01
2024-05-09T03:31:18.516Z,13.92
2024-05-09T03:31:50.399Z,13.87
2024-05-09T03:32:22.252Z,13.78
2024-05-09T03:32:54.600Z,13.81
2024-05-09T03:33:26.685Z,13.83
2024-05-09T03:33:58.756Z,13.82
2024-05-09T03:34:30.634Z,13.95
2024-05-09T03:35:02.434Z,13.92
2024-05-09T03:35:34.203Z,13.95
2024-05-09T03:36:09.784Z,13.93
2024-05-09T03:36:45.717Z,13.93
2024-05-09T03:37:17.452Z,13.86
2024-05-09T03:37:49.208Z,13.87
2024-05-09T03:38:21.031Z,13.90
2024-05-09T03:38:52.754Z,13.90
2024-05-09T03:39:24.460Z,13.95
2024-05-09T03:39:56.155Z,13.95
2024-05-09T03:40:30.856Z,13.86
2024-05-09T03:41:03.209Z,13.85
2024-05-09T03:41:34.955Z,13.82
2024-05-09T03:42:06.720Z,13.89
2024-05-09T03:42:41.670Z,13.83
2024-05-09T03:43:14.076Z,13.83
2024-05-09T03:43:45.784Z,13.87
2024-05-09T03:44:17.784Z,13.90
2024-05-09T03:44:49.556Z,13.93
2024-05-09T03:45:21.455Z,14.01
2024-05-09T03:45:53.336Z,14.01
2024-05-09T03:46:25.097Z,13.93
2024-05-09T03:46:56.829Z,13.96
2024-05-09T03:47:28.767Z,13.96
2024-05-09T03:48:00.756Z,14.06
2024-05-09T03:48:35.159Z,14.02
2024-05-09T03:49:07.311Z,14.06
2024-05-09T03:49:39.112Z,14.09
2024-05-09T03:50:18.267Z,14.09
2024-05-09T03:50:57.497Z,14.09
2024-05-09T03:51:29.308Z,14.03
2024-05-09T03:52:05.141Z,14.06
2024-05-09T03:52:36.864Z,14.13
2024-05-09T03:53:13.003Z,14.15
2024-05-09T03:53:44.864Z,14.09
2024-05-09T03:54:16.582Z,14.10
2024-05-09T03:54:48.343Z,14.09
2024-05-09T03:55:20.032Z,14.15
2024-05-09T03:55:51.828Z,14.12
2024-05-09T03:56:23.617Z,14.09
2024-05-09T03:56:55.355Z,14.09
2024-05-09T03:57:27.063Z,14.10
2024-05-09T03:57:59.028Z,14.05
2024-05-09T03:58:30.889Z,14.09
2024-05-09T03:59:02.688Z,14.12
2024-05-09T03:59:34.513Z,14.10
2024-05-09T04:00:14.480Z,14.02
2024-05-09T04:00:49.864Z,14.10
2024-05-09T04:01:21.660Z,14.16
2024-05-09T04:01:53.449Z,14.15
2024-05-09T04:02:25.322Z,14.06
2024-05-09T04:02:59.427Z,14.19
2024-05-09T04:03:31.614Z,14.16
2024-05-09T04:04:03.483Z,14.16
2024-05-09T04:04:35.256Z,14.13
2024-05-09T04:05:07.113Z,14.09
2024-05-09T04:05:43.791Z,14.09
2024-05-09T04:06:25.853Z,14.15
2024-05-09T04:06:57.582Z,14.22
2024-05-09T04:07:29.284Z,14.24
2024-05-09T04:08:01.084Z,14.24
2024-05-09T04:08:33.106Z,14.32
2024-05-09T04:09:05.378Z,14.27
2024-05-09T04:09:37.090Z,14.27
2024-05-09T04:10:13.882Z,14.33
2024-05-09T04:10:48.920Z,14.38
2024-05-09T04:11:20.746Z,14.38
2024-05-09T04:11:52.774Z,14.44
2024-05-09T04:12:24.746Z,14.48
2024-05-09T04:12:56.472Z,14.48
2024-05-09T04:13:28.188Z,14.51
2024-05-09T04:13:59.966Z,14.53
2024-05-09T04:14:31.876Z,14.53
2024-05-09T04:15:03.861Z,14.59
2024-05-09T04:15:35.613Z,14.60
2024-05-09T04:16:10.118Z,14.63
2024-05-09T04:16:42.800Z,14.61
2024-05-09T04:17:14.548Z,14.65
2024-05-09T04:17:51.775Z,14.71
2024-05-09T04:18:23.707Z,14.73
2024-05-09T04:18:55.518Z,14.71
2024-05-09T04:19:27.506Z,14.74
2024-05-09T04:19:59.501Z,14.75
2024-05-09T04:20:38.113Z,14.75
2024-05-09T04:21:12.183Z,14.78
2024-05-09T04:21:44.010Z,14.74
2024-05-09T04:22:15.938Z,14.78
2024-05-09T04:22:47.663Z,14.74
2024-05-09T04:23:19.530Z,14.77
2024-05-09T04:23:51.255Z,14.80
2024-05-09T04:24:22.944Z,14.81
2024-05-09T04:24:54.705Z,14.78
2024-05-09T04:25:26.410Z,14.81
2024-05-09T04:25:58.292Z,14.82
2024-05-09T04:26:30.133Z,14.84
2024-05-09T04:27:02.013Z,14.87
2024-05-09T04:27:33.746Z,14.81
2024-05-09T04:28:05.885Z,14.81
2024-05-09T04:28:37.694Z,14.81
2024-05-09T04:29:09.482Z,14.82
2024-05-09T04:29:41.246Z,14.80
2024-05-09T04:30:21.590Z,14.82
2024-05-09T04:31:01.998Z,14.88
2024-05-09T04:31:36.767Z,14.77
2024-05-09T04:32:08.780Z,14.87
2024-05-09T04:32:40.726Z,14.94
2024-05-09T04:33:15.087Z,14.96
2024-05-09T04:33:47.307Z,14.98
2024-05-09T04:34:19.163Z,15.01
2024-05-09T04:34:50.990Z,15.06
2024-05-09T04:35:22.754Z,15.11
2024-05-09T04:35:54.515Z,15.09
2024-05-09T04:36:26.191Z,15.11
2024-05-09T04:36:57.921Z,15.12
2024-05-09T04:37:30.510Z,15.16
2024-05-09T04:38:02.450Z,15.18
2024-05-09T04:38:34.426Z,15.21
2024-05-09T04:39:06.228Z,15.26
2024-05-09T04:39:37.977Z,15.23
2024-05-09T04:40:20.494Z,15.18
2024-05-09T04:40:56.154Z,15.22
2024-05-09T04:41:27.974Z,15.22
2024-05-09T04:41:59.732Z,15.22
2024-05-09T04:42:31.432Z,15.18
2024-05-09T04:43:04.230Z,15.25
2024-05-09T04:43:36.231Z,15.25
2024-05-09T04:44:08.004Z,15.22
2024-05-09T04:44:42.193Z,15.23
2024-05-09T04:45:13.985Z,15.31
2024-05-09T04:45:45.813Z,15.26
2024-05-09T04:46:17.552Z,15.31
2024-05-09T04:46:49.313Z,15.32
2024-05-09T04:47:21.426Z,15.33
2024-05-09T04:47:54.549Z,15.35
2024-05-09T04:48:26.510Z,15.35
2024-05-09T04:48:58.396Z,15.36
2024-05-09T04:49:30.191Z,15.33
2024-05-09T04:50:02.025Z,15.28
2024-05-09T04:50:37.696Z,15.26
2024-05-09T04:51:11.048Z,15.36
2024-05-09T04:51:42.779Z,15.29
2024-05-09T04:52:14.469Z,15.29
2024-05-09T04:52:46.279Z,15.33
2024-05-09T04:53:18.288Z,15.33
2024-05-09T04:53:50.128Z,15.33
2024-05-09T04:54:33.492Z,15.40
2024-05-09T04:55:07.804Z,15.31
2024-05-09T04:55:40.584Z,15.26
2024-05-09T04:56:12.585Z,15.33
2024-05-09T04:56:44.486Z,15.31
2024-05-09T04:57:16.303Z,15.35
2024-05-09T04:57:48.017Z,15.35
2024-05-09T04:58:19.806Z,15.31
2024-05-09T04:58:51.728Z,15.28
2024-05-09T04:59:23.708Z,15.29
2024-05-09T04:59:55.818Z,15.32
2024-05-09T05:00:35.293Z,15.29
2024-05-09T05:01:09.356Z,15.40
2024-05-09T05:01:41.093Z,15.44
2024-05-09T05:02:12.908Z,15.35
2024-05-09T05:02:44.859Z,15.33
2024-05-09T05:03:17.163Z,15.08
2024-05-09T05:03:49.463Z,15.16
2024-05-09T05:04:21.445Z,15.23
2024-05-09T05:04:53.445Z,15.26
2024-05-09T05:05:25.327Z,15.31
2024-05-09T05:05:57.338Z,15.25
2024-05-09T05:06:30.276Z,15.25
2024-05-09T05:07:02.997Z,15.28
2024-05-09T05:07:34.902Z,15.29
2024-05-09T05:08:15.128Z,15.35
2024-05-09T05:08:47.196Z,15.42
2024-05-09T05:09:18.946Z,15.43
2024-05-09T05:09:50.692Z,15.43
2024-05-09T05:10:29.525Z,15.42
2024-05-09T05:11:07.152Z,15.42
2024-05-09T05:11:39.000Z,15.43
2024-05-09T05:12:30.861Z,15.40
2024-05-09T05:13:23.244Z,15.43
2024-05-09T05:13:55.664Z,15.49
2024-05-09T05:14:27.550Z,15.44
2024-05-09T05:14:59.272Z,15.46
2024-05-09T05:15:31.117Z,15.49
2024-05-09T05:16:02.806Z,15.50
2024-05-09T05:16:34.504Z,15.40
2024-05-09T05:17:06.256Z,15.35
2024-05-09T05:17:38.193Z,15.36
2024-05-09T05:18:10.412Z,15.38
2024-05-09T05:18:43.839Z,15.39
2024-05-09T05:19:17.555Z,15.49
2024-05-09T05:19:49.830Z,15.44
2024-05-09T05:20:27.824Z,15.46
2024-05-09T05:21:05.132Z,15.54
2024-05-09T05:21:36.846Z,15.46
2024-05-09T05:22:08.653Z,15.42
2024-05-09T05:22:43.174Z,15.39
2024-05-09T05:23:16.578Z,15.52
2024-05-09T05:23:48.601Z,15.50
2024-05-09T05:24:20.344Z,15.52
2024-05-09T05:24:52.051Z,15.57
2024-05-09T05:25:23.762Z,15.64
2024-05-09T05:25:55.889Z,15.71
2024-05-09T05:26:27.785Z,15.76
2024-05-09T05:26:59.530Z,15.70
2024-05-09T05:27:31.300Z,15.80
2024-05-09T05:28:03.054Z,15.71
2024-05-09T05:28:34.777Z,15.64
2024-05-09T05:29:06.515Z,15.61
2024-05-09T05:29:38.328Z,15.63
2024-05-09T05:30:17.551Z,15.71
2024-05-09T05:30:52.905Z,15.81
2024-05-09T05:31:24.704Z,15.77
2024-05-09T05:31:56.674Z,15.89
2024-05-09T05:32:28.741Z,15.86
2024-05-09T05:33:00.928Z,15.87
2024-05-09T05:33:32.944Z,15.81
2024-05-09T05:34:04.884Z,15.77
2024-05-09T05:34:36.647Z,15.77
2024-05-09T05:35:08.442Z,15.73
2024-05-09T05:35:41.608Z,15.69
2024-05-09T05:36:13.379Z,15.86
2024-05-09T05:36:45.057Z,15.87
2024-05-09T05:37:16.748Z,15.81
2024-05-09T05:37:48.602Z,15.76
2024-05-09T05:38:22.859Z,15.80
2024-05-09T05:38:56.654Z,15.87
2024-05-09T05:39:28.375Z,15.94
2024-05-09T05:40:00.171Z,15.94
2024-05-09T05:40:36.615Z,15.90
2024-05-09T05:41:10.155Z,15.93
2024-05-09T05:41:41.949Z,15.91
2024-05-09T05:42:13.665Z,15.93
2024-05-09T05:42:45.348Z,15.86
2024-05-09T05:43:18.503Z,15.83
2024-05-09T05:43:50.223Z,15.81
2024-05-09T05:44:22.058Z,15.87
2024-05-09T05:44:53.967Z,15.97
2024-05-09T05:45:25.803Z,16.00
2024-05-09T05:45:57.487Z,16.07
2024-05-09T05:46:29.240Z,16.05
2024-05-09T05:47:01.032Z,16.02
2024-05-09T05:47:32.869Z,16.10
2024-05-09T05:48:06.248Z,16.08
2024-05-09T05:48:38.602Z,16.00
2024-05-09T05:49:10.571Z,16.05
2024-05-09T05:49:42.486Z,15.96
2024-05-09T05:50:23.816Z,15.97
2024-05-09T05:51:01.927Z,15.73
2024-05-09T05:51:35.428Z,15.79
2024-05-09T05:52:07.242Z,15.89
2024-05-09T05:52:38.953Z,15.96
2024-05-09T05:53:10.922Z,15.91
2024-05-09T05:53:42.865Z,15.96
2024-05-09T05:54:14.702Z,16.01
2024-05-09T05:54:48.585Z,15.89
2024-05-09T05:55:20.365Z,15.77
2024-05-09T05:55:52.289Z,15.81
2024-05-09T05:56:24.090Z,15.89
2024-05-09T05:56:57.221Z,15.97
2024-05-09T05:57:28.950Z,15.96
2024-05-09T05:58:01.905Z,15.96
2024-05-09T05:58:33.655Z,16.02
2024-05-09T05:59:05.430Z,16.14
2024-05-09T05:59:37.355Z,16.10
2024-05-09T06:00:15.152Z,15.97
2024-05-09T06:00:53.231Z,16.14
2024-05-09T06:01:25.080Z,16.14
2024-05-09T06:01:56.899Z,16.14
2024-05-09T06:02:28.820Z,16.14
2024-05-09T06:03:00.648Z,16.20
2024-05-09T06:03:32.633Z,16.14
2024-05-09T06:04:04.573Z,16.02
2024-05-09T06:04:36.493Z,16.02
2024-05-09T06:05:08.287Z,16.08
2024-05-09T06:05:40.889Z,16.02
2024-05-09T06:06:13.761Z,16.07
2024-05-09T06:06:45.494Z,16.10
2024-05-09T06:07:17.193Z,16.18
2024-05-09T06:07:49.076Z,16.21
2024-05-09T06:08:26.209Z,16.21
2024-05-09T06:09:00.014Z,16.18
2024-05-09T06:09:31.764Z,16.22
2024-05-09T06:10:05.328Z,16.28
2024-05-09T06:10:40.776Z,16.22
2024-05-09T06:11:13.507Z,16.33
2024-05-09T06:11:45.599Z,16.39
2024-05-09T06:12:17.508Z,16.39
2024-05-09T06:12:49.304Z,16.47
2024-05-09T06:13:21.355Z,16.52
2024-05-09T06:13:53.143Z,16.52
2024-05-09T06:14:24.931Z,16.44
2024-05-09T06:14:56.674Z,16.32
2024-05-09T06:15:28.417Z,16.29
2024-05-09T06:16:00.868Z,16.35
2024-05-09T06:16:32.615Z,16.38
2024-05-09T06:17:04.496Z,16.51
2024-05-09T06:17:36.315Z,16.55
2024-05-09T06:18:10.188Z,16.44
2024-05-09T06:18:43.048Z,16.49
2024-05-09T06:19:15.033Z,16.49
2024-05-09T06:19:46.869Z,16.44
2024-05-09T06:20:24.019Z,16.51
2024-05-09T06:21:03.688Z,16.56
2024-05-09T06:21:35.451Z,16.52
2024-05-09T06:22:09.504Z,16.58
2024-05-09T06:22:41.234Z,16.58
2024-05-09T06:23:14.603Z,16.65
2024-05-09T06:23:47.689Z,16.69
2024-05-09T06:24:19.425Z,16.52
2024-05-09T06:24:51.163Z,16.44
2024-05-09T06:25:23.403Z,16.49
2024-05-09T06:25:55.096Z,16.52
2024-05-09T06:26:26.883Z,16.36
2024-05-09T06:26:59.260Z,16.48
2024-05-09T06:27:31.026Z,16.48
2024-05-09T06:28:02.836Z,16.55
2024-05-09T06:28:35.620Z,16.55
2024-05-09T06:29:07.559Z,16.42
2024-05-09T06:29:39.721Z,16.47
2024-05-09T06:30:24.831Z,16.47
2024-05-09T06:31:01.772Z,16.48
2024-05-09T06:31:33.519Z,16.48
2024-05-09T06:32:05.934Z,16.53
2024-05-09T06:32:37.936Z,16.58
2024-05-09T06:33:13.046Z,16.72
2024-05-09T06:33:47.163Z,16.69
2024-05-09T06:34:19.516Z,16.59
2024-05-09T06:34:51.403Z,16.66
2024-05-09T06:35:23.165Z,16.60
2024-05-09T06:35:59.313Z,16.62
2024-05-09T06:36:30.996Z,16.59
2024-05-09T06:37:02.778Z,16.60
2024-05-09T06:37:34.531Z,16.58
2024-05-09T06:38:08.910Z,16.60
2024-05-09T06:38:41.049Z,16.68
2024-05-09T06:39:12.760Z,16.56
2024-05-09T06:39:46.092Z,16.51
2024-05-09T06:40:25.301Z,16.63
2024-05-09T06:41:01.258Z,16.70
2024-05-09T06:41:33.029Z,16.75
2024-05-09T06:42:04.750Z,16.79
2024-05-09T06:42:36.455Z,16.69
2024-05-09T06:43:16.894Z,16.75
2024-05-09T06:43:50.607Z,16.77
2024-05-09T06:44:22.384Z,16.58
2024-05-09T06:44:55.212Z,16.59
2024-05-09T06:45:26.917Z,16.53
2024-05-09T06:45:58.675Z,16.62
2024-05-09T06:46:30.489Z,16.53
2024-05-09T06:47:02.379Z,16.48
2024-05-09T06:47:34.313Z,16.42
2024-05-09T06:48:07.199Z,16.53
2024-05-09T06:48:39.345Z,16.44
2024-05-09T06:49:13.678Z,16.36
2024-05-09T06:49:45.578Z,16.39
2024-05-09T06:50:23.751Z,16.45
2024-05-09T06:50:59.214Z,16.31
2024-05-09T06:51:30.928Z,16.36
2024-05-09T06:52:02.667Z,16.36
2024-05-09T06:52:34.372Z,16.45
2024-05-09T06:53:06.391Z,16.47
2024-05-09T06:53:39.977Z,16.53
2024-05-09T06:54:11.827Z,16.73
2024-05-09T06:54:43.559Z,16.79
2024-05-09T06:55:15.264Z,16.84
2024-05-09T06:55:47.025Z,16.87
2024-05-09T06:56:18.804Z,16.89
2024-05-09T06:56:51.826Z,17.08
2024-05-09T06:57:23.600Z,17.18
2024-05-09T06:57:55.344Z,17.23
2024-05-09T06:58:27.034Z,17.10
2024-05-09T06:58:58.809Z,17.30
2024-05-09T06:59:30.668Z,17.17
2024-05-09T07:00:02.440Z,17.31
2024-05-09T07:00:38.683Z,17.31
2024-05-09T07:01:12.670Z,17.27
2024-05-09T07:01:44.694Z,17.39
2024-05-09T07:02:16.543Z,17.49
2024-05-09T07:02:48.437Z,17.49